createdAt,value
2023-04-27T00:00:02.055Z,2.30
2023-04-27T00:02:36.190Z,2.40
2023-04-27T00:05:04.056Z,1.60
2023-04-27T00:07:31.823Z,2.80
2023-04-27T00:09:58.632Z,2.40
2023-04-27T00:12:25.728Z,2.30
2023-04-27T00:14:52.681Z,2.00
2023-04-27T00:17:19.484Z,2.30
2023-04-27T00:19:47.451Z,2.00
2023-04-27T00:22:14.270Z,1.80
2023-04-27T00:24:42.007Z,2.10
2023-04-27T00:27:08.645Z,1.70
2023-04-27T00:29:35.550Z,1.90
2023-04-27T00:32:02.363Z,2.60
2023-04-27T00:34:29.153Z,2.10
2023-04-27T00:36:55.876Z,2.40
2023-04-27T00:39:22.545Z,2.00
2023-04-27T00:41:49.278Z,3.20
2023-04-27T00:44:23.655Z,2.10
2023-04-27T00:46:50.547Z,2.40
2023-04-27T00:49:19.508Z,2.20
2023-04-27T00:51:48.360Z,2.10
2023-04-27T00:54:19.990Z,2.20
2023-04-27T00:56:50.711Z,2.40
2023-04-27T00:59:18.570Z,2.30
2023-04-27T01:01:46.664Z,3.00
2023-04-27T01:04:17.901Z,2.20
2023-04-27T01:06:45.988Z,3.00
2023-04-27T01:09:12.804Z,2.20
2023-04-27T01:11:39.631Z,2.80
2023-04-27T01:14:09.858Z,2.90
2023-04-27T01:16:37.974Z,2.40
2023-04-27T01:19:06.242Z,2.30
2023-04-27T01:21:33.724Z,2.80
2023-04-27T01:24:00.438Z,2.40
2023-04-27T01:26:27.108Z,3.60
2023-04-27T01:28:53.741Z,2.90
2023-04-27T01:31:20.509Z,2.40
2023-04-27T01:33:47.158Z,2.70
2023-04-27T01:36:14.045Z,2.50
2023-04-27T01:38:41.065Z,2.40
2023-04-27T01:41:09.283Z,3.10
2023-04-27T01:43:39.362Z,3.10
2023-04-27T01:46:10.335Z,3.20
2023-04-27T01:48:37.355Z,2.60
2023-04-27T01:51:04.181Z,2.80
2023-04-27T01:53:31.077Z,2.80
2023-04-27T01:55:59.625Z,2.90
2023-04-27T01:58:26.708Z,4.10
2023-04-27T02:00:53.944Z,2.90
2023-04-27T02:03:20.895Z,3.30
2023-04-27T02:05:50.485Z,3.30
2023-04-27T02:08:17.177Z,2.90
2023-04-27T02:10:44.947Z,3.60
2023-04-27T02:13:11.564Z,2.60
2023-04-27T02:15:38.236Z,3.10
2023-04-27T02:18:05.122Z,2.90
2023-04-27T02:20:32.507Z,3.30
2023-04-27T02:23:01.011Z,3.00
2023-04-27T02:25:27.923Z,2.90
2023-04-27T02:27:55.052Z,3.80
2023-04-27T02:30:22.349Z,3.00
2023-04-27T02:32:49.804Z,3.00
2023-04-27T02:35:16.578Z,2.60
2023-04-27T02:37:43.259Z,3.20
2023-04-27T02:40:10.369Z,2.90
2023-04-27T02:42:38.925Z,2.70
2023-04-27T02:45:08.919Z,3.00
2023-04-27T02:47:36.478Z,2.90
2023-04-27T02:50:03.923Z,3.30
2023-04-27T02:52:33.483Z,2.90
2023-04-27T02:55:00.165Z,3.40
2023-04-27T02:57:27.784Z,3.00
2023-04-27T02:59:54.418Z,2.70
2023-04-27T03:02:21.309Z,3.00
2023-04-27T03:04:53.536Z,3.10
2023-04-27T03:07:21.499Z,3.20
2023-04-27T03:09:48.173Z,3.20
2023-04-27T03:12:14.833Z,3.80
2023-04-27T03:14:41.507Z,2.70
2023-04-27T03:17:08.237Z,3.10
2023-04-27T03:19:34.866Z,3.20
2023-04-27T03:22:01.488Z,3.00
2023-04-27T03:24:28.115Z,3.20
2023-04-27T03:26:54.728Z,2.60
2023-04-27T03:29:21.570Z,3.70
2023-04-27T03:31:48.258Z,3.20
2023-04-27T03:34:14.985Z,3.30
2023-04-27T03:36:42.043Z,2.40
2023-04-27T03:39:10.035Z,3.00
2023-04-27T03:41:36.672Z,2.90
2023-04-27T03:44:06.478Z,3.00
2023-04-27T03:46:34.666Z,2.80
2023-04-27T03:49:01.620Z,3.00
2023-04-27T03:51:28.457Z,2.40
2023-04-27T03:53:55.154Z,3.30
2023-04-27T03:56:22.796Z,2.80
2023-04-27T03:58:49.805Z,2.40
2023-04-27T04:01:22.057Z,2.50
2023-04-27T04:03:49.077Z,3.00
2023-04-27T04:06:16.204Z,2.20
2023-04-27T04:08:42.890Z,2.10
2023-04-27T04:11:09.728Z,4.10
2023-04-27T04:13:36.749Z,2.80
2023-04-27T04:16:07.776Z,2.60
2023-04-27T04:18:34.897Z,2.60
2023-04-27T04:21:01.724Z,3.00
2023-04-27T04:23:28.452Z,3.40
2023-04-27T04:25:58.664Z,2.80
2023-04-27T04:28:28.109Z,3.20
2023-04-27T04:30:54.871Z,7.50
2023-04-27T04:33:21.985Z,5.10
2023-04-27T04:35:48.725Z,2.90
2023-04-27T04:38:15.739Z,3.00
2023-04-27T04:40:45.294Z,3.30
2023-04-27T04:43:13.511Z,3.00
2023-04-27T04:45:42.073Z,7.60
2023-04-27T04:48:08.909Z,6.50
2023-04-27T04:50:36.029Z,4.30
2023-04-27T04:53:02.868Z,3.50
2023-04-27T04:55:29.589Z,5.20
2023-04-27T04:57:56.286Z,2.70
2023-04-27T05:00:23.307Z,2.80
2023-04-27T05:02:50.338Z,3.20
2023-04-27T05:05:17.291Z,3.60
2023-04-27T05:07:44.011Z,3.50
2023-04-27T05:10:10.750Z,2.40
2023-04-27T05:12:37.483Z,3.20
2023-04-27T05:15:04.892Z,2.90
2023-04-27T05:17:31.866Z,2.80
2023-04-27T05:19:58.642Z,3.10
2023-04-27T05:22:25.418Z,3.60
2023-04-27T05:24:52.036Z,3.30
2023-04-27T05:27:18.749Z,4.10
2023-04-27T05:29:45.356Z,3.60
2023-04-27T05:32:12.028Z,3.20
2023-04-27T05:34:38.848Z,3.20
2023-04-27T05:37:05.455Z,3.80
2023-04-27T05:39:32.480Z,3.50
2023-04-27T05:41:59.121Z,3.10
2023-04-27T05:44:29.695Z,4.20
2023-04-27T05:46:56.461Z,5.30
2023-04-27T05:49:23.486Z,3.90
2023-04-27T05:51:50.162Z,3.30
2023-04-27T05:54:16.847Z,3.10
2023-04-27T05:56:43.566Z,4.00
2023-04-27T05:59:12.867Z,5.70
2023-04-27T06:01:41.523Z,3.70
2023-04-27T06:04:08.420Z,6.30
2023-04-27T06:06:35.543Z,4.80
2023-04-27T06:10:26.854Z,2.30
2023-04-27T06:12:53.650Z,2.60
2023-04-27T06:15:20.953Z,2.60
2023-04-27T06:17:47.811Z,4.60
2023-04-27T06:20:15.930Z,3.50
2023-04-27T06:22:42.606Z,5.50
2023-04-27T06:25:09.471Z,3.10
2023-04-27T06:27:36.481Z,4.50
2023-04-27T06:30:03.804Z,2.90
2023-04-27T06:32:30.578Z,3.00
2023-04-27T06:34:57.283Z,3.00
2023-04-27T06:37:23.908Z,3.10
2023-04-27T06:39:50.728Z,2.60
2023-04-27T06:42:17.447Z,2.40
2023-04-27T06:44:44.179Z,2.90
2023-04-27T06:47:11.141Z,2.70
2023-04-27T06:49:37.902Z,2.80
2023-04-27T06:52:04.973Z,2.60
2023-04-27T06:54:31.627Z,2.80
2023-04-27T06:56:58.263Z,3.40
2023-04-27T06:59:25.290Z,2.80
2023-04-27T07:01:52.187Z,3.20
2023-04-27T07:04:19.296Z,2.60
2023-04-27T07:06:46.438Z,2.50
2023-04-27T07:09:26.061Z,2.70
2023-04-27T07:11:55.847Z,2.60
2023-04-27T07:14:22.676Z,2.50
2023-04-27T07:16:49.387Z,2.90
2023-04-27T07:19:19.639Z,2.90
2023-04-27T07:21:46.921Z,2.70
2023-04-27T07:24:13.591Z,3.00
2023-04-27T07:26:41.482Z,3.20
2023-04-27T07:29:25.519Z,3.20
2023-04-27T07:31:54.224Z,3.60
2023-04-27T07:34:20.976Z,3.20
2023-04-27T07:36:47.600Z,3.00
2023-04-27T07:39:15.060Z,2.60
2023-04-27T07:41:41.990Z,2.70
2023-04-27T07:44:11.348Z,2.70
2023-04-27T07:46:39.243Z,3.10
2023-04-27T07:49:06.080Z,2.70
2023-04-27T07:51:34.594Z,2.80
2023-04-27T07:54:02.578Z,2.90
2023-04-27T07:56:29.170Z,2.50
2023-04-27T07:58:56.190Z,2.70
2023-04-27T08:01:23.052Z,2.60
2023-04-27T08:03:50.426Z,3.00
2023-04-27T08:06:18.987Z,2.60
2023-04-27T08:08:46.341Z,2.60
2023-04-27T08:11:13.079Z,2.80
2023-04-27T08:13:39.730Z,2.90
2023-04-27T08:16:07.056Z,2.70
2023-04-27T08:18:34.450Z,3.00
2023-04-27T08:21:01.247Z,2.90
2023-04-27T08:23:32.987Z,2.80
2023-04-27T08:25:59.771Z,3.00
2023-04-27T08:28:26.885Z,3.00
2023-04-27T08:30:53.598Z,2.90
2023-04-27T08:33:20.400Z,3.00
2023-04-27T08:35:47.034Z,3.40
2023-04-27T08:38:13.938Z,3.50
2023-04-27T08:40:47.223Z,3.50
2023-04-27T08:43:15.006Z,3.40
2023-04-27T08:45:47.879Z,4.10
2023-04-27T08:48:14.648Z,4.40
2023-04-27T08:50:42.502Z,3.40
2023-04-27T08:53:17.554Z,4.80
2023-04-27T08:55:45.466Z,3.30
2023-04-27T08:58:12.689Z,3.40
2023-04-27T09:00:41.562Z,3.00
2023-04-27T09:03:18.374Z,4.00
2023-04-27T09:06:00.541Z,4.40
2023-04-27T09:08:46.879Z,3.90
2023-04-27T09:11:27.477Z,21.50
2023-04-27T09:13:54.187Z,5.90
2023-04-27T09:16:29.262Z,3.60
2023-04-27T09:18:57.003Z,3.90
2023-04-27T09:21:28.663Z,3.50
2023-04-27T09:23:56.000Z,3.40
2023-04-27T09:26:24.949Z,3.10
2023-04-27T09:28:52.874Z,3.40
2023-04-27T09:31:19.656Z,3.20
2023-04-27T09:33:47.569Z,3.00
2023-04-27T09:36:14.395Z,3.40
2023-04-27T09:38:41.134Z,3.10
2023-04-27T09:41:08.000Z,5.90
2023-04-27T09:43:34.751Z,3.20
2023-04-27T09:46:01.790Z,3.40
2023-04-27T09:48:28.749Z,3.70
2023-04-27T09:50:56.179Z,3.10
2023-04-27T09:53:46.703Z,3.70
2023-04-27T09:56:31.702Z,3.50
2023-04-27T09:59:26.939Z,3.20
2023-04-27T10:01:57.688Z,4.20
2023-04-27T10:04:51.966Z,3.60
2023-04-27T10:07:18.989Z,3.50
2023-04-27T10:09:46.938Z,4.20
2023-04-27T10:12:27.004Z,3.60
2023-04-27T10:14:55.569Z,4.20
2023-04-27T10:17:48.903Z,3.70
2023-04-27T10:20:16.106Z,3.80
2023-04-27T10:22:44.416Z,3.90
2023-04-27T10:25:19.302Z,3.90
2023-04-27T10:27:59.578Z,4.00
2023-04-27T10:30:27.740Z,5.00
2023-04-27T10:32:58.547Z,4.20
2023-04-27T10:35:39.429Z,4.40
2023-04-27T10:38:10.530Z,3.60
2023-04-27T10:40:38.357Z,3.90
2023-04-27T10:43:09.508Z,4.10
2023-04-27T10:45:36.349Z,3.80
2023-04-27T10:48:03.107Z,3.90
2023-04-27T10:50:30.047Z,5.00
2023-04-27T10:53:02.052Z,4.30
2023-04-27T10:55:29.540Z,3.80
2023-04-27T10:57:57.584Z,4.10
2023-04-27T11:00:25.424Z,4.10
2023-04-27T11:02:53.846Z,3.90
2023-04-27T11:05:25.655Z,3.70
2023-04-27T11:07:53.292Z,4.80
2023-04-27T11:10:20.784Z,4.70
2023-04-27T11:12:47.415Z,3.80
2023-04-27T11:15:14.537Z,4.10
2023-04-27T11:17:41.799Z,8.40
2023-04-27T11:20:09.111Z,18.50
2023-04-27T11:22:44.861Z,6.70
2023-04-27T11:25:11.806Z,4.20
2023-04-27T11:27:39.427Z,4.20
2023-04-27T11:30:07.577Z,8.60
2023-04-27T11:32:34.471Z,5.70
2023-04-27T11:35:01.246Z,5.70
2023-04-27T11:37:28.278Z,4.00
2023-04-27T11:39:55.077Z,5.90
2023-04-27T11:42:25.876Z,13.20
2023-04-27T11:44:53.318Z,5.00
2023-04-27T11:47:21.354Z,4.90
2023-04-27T11:49:58.581Z,5.00
2023-04-27T11:52:32.139Z,4.40
2023-04-27T11:55:00.453Z,5.10
2023-04-27T11:57:31.760Z,7.10
2023-04-27T12:00:00.685Z,4.60
2023-04-27T12:02:28.560Z,3.90
2023-04-27T12:04:56.073Z,4.70
2023-04-27T12:07:23.047Z,4.00
2023-04-27T12:09:51.042Z,4.40
2023-04-27T12:12:22.243Z,4.50
2023-04-27T12:14:49.634Z,5.40
2023-04-27T12:17:16.617Z,3.80
2023-04-27T12:19:43.317Z,5.20
2023-04-27T12:22:10.336Z,4.10
2023-04-27T12:24:37.424Z,4.00
2023-04-27T12:27:04.533Z,3.60
2023-04-27T12:29:33.744Z,3.90
2023-04-27T12:32:00.426Z,4.10
2023-04-27T12:34:32.047Z,4.30
2023-04-27T12:36:58.917Z,4.10
2023-04-27T12:39:25.835Z,4.40
2023-04-27T12:41:53.114Z,3.40
2023-04-27T12:44:21.575Z,4.50
2023-04-27T12:46:48.628Z,4.00
2023-04-27T12:49:15.861Z,5.70
2023-04-27T12:51:42.661Z,7.90
2023-04-27T12:54:13.200Z,19.10
2023-04-27T12:56:42.264Z,6.10
2023-04-27T12:59:09.292Z,5.10
2023-04-27T13:01:36.090Z,5.20
2023-04-27T13:04:06.221Z,8.40
2023-04-27T13:06:34.705Z,5.30
2023-04-27T13:09:02.474Z,17.50
2023-04-27T13:11:29.171Z,5.00
2023-04-27T13:13:56.014Z,17.50
2023-04-27T13:16:25.305Z,9.60
2023-04-27T13:18:53.786Z,6.20
2023-04-27T13:21:20.986Z,4.10
2023-04-27T13:23:48.187Z,5.10
2023-04-27T13:26:16.570Z,7.70
2023-04-27T13:28:44.785Z,7.40
2023-04-27T13:31:13.132Z,4.70
2023-04-27T13:33:44.580Z,8.60
2023-04-27T13:36:12.419Z,5.70
2023-04-27T13:38:39.910Z,5.40
2023-04-27T13:41:07.373Z,5.20
2023-04-27T13:43:35.025Z,4.10
2023-04-27T13:46:03.276Z,5.80
2023-04-27T13:48:30.804Z,4.90
2023-04-27T13:50:58.683Z,5.60
2023-04-27T13:53:26.180Z,4.40
2023-04-27T13:55:57.418Z,4.90
2023-04-27T13:58:26.225Z,17.70
2023-04-27T14:00:54.201Z,6.90
2023-04-27T14:03:21.725Z,10.30
2023-04-27T14:05:50.374Z,4.90
2023-04-27T14:08:17.275Z,19.40
2023-04-27T14:10:44.963Z,7.20
2023-04-27T14:13:12.623Z,4.50
2023-04-27T14:15:39.381Z,5.30
2023-04-27T14:18:07.667Z,4.90
2023-04-27T14:20:35.549Z,4.50
2023-04-27T14:23:04.266Z,4.70
2023-04-27T14:25:32.809Z,5.00
2023-04-27T14:28:03.211Z,5.30
2023-04-27T14:30:31.369Z,6.00
2023-04-27T14:32:58.113Z,4.70
2023-04-27T14:35:24.912Z,5.60
2023-04-27T14:37:52.367Z,11.50
2023-04-27T14:40:19.316Z,12.90
2023-04-27T14:42:46.974Z,8.80
2023-04-27T14:45:13.796Z,6.40
2023-04-27T14:47:40.624Z,7.00
2023-04-27T14:50:08.366Z,5.10
2023-04-27T14:52:35.043Z,5.80
2023-04-27T14:55:01.678Z,7.80
2023-04-27T14:57:28.357Z,4.90
2023-04-27T14:59:55.063Z,11.80
2023-04-27T15:02:21.820Z,6.90
2023-04-27T15:04:48.578Z,5.30
2023-04-27T15:07:15.492Z,28.50
2023-04-27T15:09:42.204Z,14.40
2023-04-27T15:12:10.000Z,6.70
2023-04-27T15:14:36.803Z,14.50
2023-04-27T15:17:03.421Z,5.30
2023-04-27T15:19:30.079Z,5.80
2023-04-27T15:21:56.954Z,5.20
2023-04-27T15:24:23.690Z,6.50
2023-04-27T15:26:50.571Z,9.10
2023-04-27T15:29:17.216Z,8.30
2023-04-27T15:31:43.984Z,6.10
2023-04-27T15:34:10.901Z,5.70
2023-04-27T15:36:38.100Z,5.60
2023-04-27T15:39:04.735Z,7.60
2023-04-27T15:41:31.551Z,8.10
2023-04-27T15:43:58.168Z,8.30
2023-04-27T15:46:24.861Z,5.70
2023-04-27T15:48:51.578Z,5.70
2023-04-27T15:51:18.243Z,5.60
2023-04-27T15:53:44.858Z,5.20
2023-04-27T15:56:11.834Z,6.20
2023-04-27T15:58:38.623Z,6.20
2023-04-27T16:01:05.401Z,5.50
2023-04-27T16:03:33.384Z,4.40
2023-04-27T16:06:00.135Z,7.00
2023-04-27T16:08:27.932Z,6.40
2023-04-27T16:10:54.716Z,6.20
2023-04-27T16:13:21.368Z,7.10
2023-04-27T16:15:48.091Z,5.40
2023-04-27T16:18:14.786Z,6.40
2023-04-27T16:20:41.881Z,5.30
2023-04-27T16:23:08.512Z,7.30
2023-04-27T16:25:35.270Z,7.80
2023-04-27T16:28:02.001Z,7.20
2023-04-27T16:30:28.952Z,5.80
2023-04-27T16:32:55.875Z,5.70
2023-04-27T16:35:22.699Z,6.10
2023-04-27T16:37:50.249Z,5.80
2023-04-27T16:40:17.026Z,6.50
2023-04-27T16:42:43.650Z,6.30
2023-04-27T16:45:11.075Z,6.30
2023-04-27T16:47:38.407Z,5.20
2023-04-27T16:50:05.702Z,5.60
2023-04-27T16:52:32.345Z,6.00
2023-04-27T16:54:59.018Z,7.40
2023-04-27T16:57:26.029Z,7.40
2023-04-27T16:59:52.667Z,5.90
2023-04-27T17:02:25.320Z,7.10
2023-04-27T17:04:54.188Z,7.70
2023-04-27T17:07:21.349Z,7.30
2023-04-27T17:09:48.586Z,7.10
2023-04-27T17:12:16.846Z,5.90
2023-04-27T17:14:43.583Z,5.60
2023-04-27T17:17:10.316Z,5.40
2023-04-27T17:19:41.781Z,7.10
2023-04-27T17:22:11.275Z,6.50
2023-04-27T17:24:37.912Z,7.00
2023-04-27T17:27:04.705Z,7.60
2023-04-27T17:29:31.965Z,6.50
2023-04-27T17:31:58.955Z,4.90
2023-04-27T17:34:25.970Z,5.40
2023-04-27T17:36:52.683Z,5.70
2023-04-27T17:39:20.664Z,6.60
2023-04-27T17:41:47.298Z,5.30
2023-04-27T17:44:14.082Z,6.30
2023-04-27T17:46:47.753Z,6.60
2023-04-27T17:49:15.754Z,5.70
2023-04-27T17:51:46.017Z,6.40
2023-04-27T17:54:15.126Z,10.50
2023-04-27T17:56:44.029Z,8.80
2023-04-27T17:59:10.671Z,7.90
2023-04-27T18:01:37.305Z,8.50
2023-04-27T18:04:06.790Z,9.00
2023-04-27T18:06:34.097Z,7.50
2023-04-27T18:09:00.755Z,8.90
2023-04-27T18:11:27.446Z,8.90
2023-04-27T18:13:54.688Z,7.30
2023-04-27T18:16:21.527Z,8.00
2023-04-27T18:18:48.218Z,10.50
2023-04-27T18:21:14.863Z,10.30
2023-04-27T18:23:42.656Z,9.30
2023-04-27T18:28:59.218Z,8.00
2023-04-27T18:31:25.959Z,10.30
2023-04-27T18:33:52.657Z,10.20
2023-04-27T18:36:19.899Z,8.80
2023-04-27T18:38:48.392Z,9.00
2023-04-27T18:41:15.198Z,6.50
2023-04-27T18:43:41.940Z,6.80
2023-04-27T18:46:08.745Z,7.90
2023-04-27T18:48:35.719Z,8.70
2023-04-27T18:51:02.547Z,9.50
2023-04-27T18:53:29.256Z,10.40
2023-04-27T18:55:56.189Z,10.20
2023-04-27T18:58:23.324Z,9.40
2023-04-27T19:00:50.117Z,8.50
2023-04-27T19:03:16.912Z,8.20
2023-04-27T19:05:44.206Z,7.80
2023-04-27T19:08:11.213Z,10.20
2023-04-27T19:10:38.040Z,9.10
2023-04-27T19:13:04.749Z,8.10
2023-04-27T19:15:31.497Z,7.10
2023-04-27T19:18:07.094Z,14.20
2023-04-27T19:20:37.902Z,12.70
2023-04-27T19:23:05.329Z,8.90
2023-04-27T19:25:32.113Z,10.00
2023-04-27T19:27:59.035Z,9.70
2023-04-27T19:30:26.062Z,12.00
2023-04-27T19:32:52.768Z,9.40
2023-04-27T19:35:20.521Z,12.80
2023-04-27T19:37:47.230Z,11.10
2023-04-27T19:40:15.016Z,10.10
2023-04-27T19:42:41.776Z,11.30
2023-04-27T19:45:08.552Z,10.50
2023-04-27T19:47:35.727Z,9.90
2023-04-27T19:50:02.821Z,10.20
2023-04-27T19:52:29.434Z,10.60
2023-04-27T19:54:56.122Z,11.10
2023-04-27T19:57:22.861Z,11.30
2023-04-27T19:59:49.523Z,9.90
2023-04-27T20:02:16.303Z,10.00
2023-04-27T20:04:43.248Z,10.50
2023-04-27T20:07:10.086Z,10.90
2023-04-27T20:09:36.716Z,10.90
2023-04-27T20:12:04.142Z,10.80
2023-04-27T20:14:33.697Z,14.00
2023-04-27T20:17:00.602Z,13.70
2023-04-27T20:19:27.240Z,12.80
2023-04-27T20:21:53.970Z,11.70
2023-04-27T20:24:24.787Z,12.20
2023-04-27T20:26:51.855Z,11.70
2023-04-27T20:29:18.506Z,10.60
2023-04-27T20:31:45.267Z,11.70
2023-04-27T20:34:12.292Z,9.70
2023-04-27T20:36:39.091Z,9.70
2023-04-27T20:39:05.946Z,9.60
2023-04-27T20:41:35.806Z,9.60
2023-04-27T20:44:03.610Z,11.20
2023-04-27T20:46:32.224Z,11.30
2023-04-27T20:48:58.945Z,9.60
2023-04-27T20:51:26.510Z,10.10
2023-04-27T20:53:53.367Z,15.50
2023-04-27T20:56:20.342Z,9.80
2023-04-27T20:58:46.989Z,8.90
2023-04-27T21:01:13.743Z,10.40
2023-04-27T21:03:41.534Z,9.10
2023-04-27T21:06:08.397Z,9.80
2023-04-27T21:08:35.083Z,11.20
2023-04-27T21:11:01.754Z,12.00
2023-04-27T21:13:28.465Z,10.40
2023-04-27T21:15:55.104Z,11.40
2023-04-27T21:18:29.883Z,10.30
2023-04-27T21:20:57.512Z,10.40
2023-04-27T21:23:24.210Z,9.10
2023-04-27T21:25:50.820Z,11.20
2023-04-27T21:28:17.431Z,10.50
2023-04-27T21:30:44.292Z,11.40
2023-04-27T21:33:11.157Z,10.50
2023-04-27T21:35:37.879Z,10.70
2023-04-27T21:38:04.570Z,11.00
2023-04-27T21:40:31.199Z,12.50
2023-04-27T21:42:57.837Z,10.30
2023-04-27T21:45:24.553Z,10.80
2023-04-27T21:47:51.274Z,10.00
2023-04-27T21:50:18.200Z,8.20
2023-04-27T21:52:44.914Z,7.30
2023-04-27T21:55:11.695Z,9.50
2023-04-27T21:57:38.351Z,8.80
2023-04-27T22:00:13.311Z,7.50
2023-04-27T22:02:46.995Z,10.50
2023-04-27T22:05:14.175Z,7.80
2023-04-27T22:07:41.437Z,8.50
2023-04-27T22:10:08.416Z,7.40
2023-04-27T22:12:35.067Z,9.60
2023-04-27T22:15:01.739Z,6.70
2023-04-27T22:17:28.405Z,8.60
2023-04-27T22:19:55.071Z,7.60
2023-04-27T22:22:21.749Z,7.30
2023-04-27T22:24:48.646Z,8.20
2023-04-27T22:27:15.406Z,8.20
2023-04-27T22:29:42.036Z,7.60
2023-04-27T22:32:08.867Z,7.30
2023-04-27T22:34:36.096Z,7.20
2023-04-27T22:37:02.876Z,5.90
2023-04-27T22:39:30.312Z,6.00
2023-04-27T22:41:56.956Z,7.70
2023-04-27T22:44:27.250Z,6.20
2023-04-27T22:46:55.461Z,7.20
2023-04-27T22:49:22.412Z,5.60
2023-04-27T22:51:49.804Z,4.90
2023-04-27T22:54:19.320Z,5.10
2023-04-27T22:56:47.370Z,5.80
2023-04-27T22:59:15.126Z,5.30
2023-04-27T23:01:42.603Z,5.60
2023-04-27T23:04:09.952Z,6.00
2023-04-27T23:06:38.171Z,6.20
2023-04-27T23:09:05.569Z,4.60
2023-04-27T23:11:32.310Z,6.00
2023-04-27T23:13:59.104Z,4.30
2023-04-27T23:16:25.843Z,4.90
2023-04-27T23:18:52.901Z,5.10
2023-04-27T23:21:19.546Z,5.10
2023-04-27T23:23:46.156Z,4.10
2023-04-27T23:26:16.368Z,5.30
2023-04-27T23:28:43.309Z,4.30
2023-04-27T23:31:10.078Z,5.00
2023-04-27T23:33:36.901Z,5.20
2023-04-27T23:36:04.497Z,4.90
2023-04-27T23:38:31.148Z,7.40
2023-04-27T23:40:57.958Z,4.90
2023-04-27T23:43:24.629Z,4.00
2023-04-27T23:45:51.784Z,5.50
2023-04-27T23:48:18.916Z,3.90
2023-04-27T23:50:45.637Z,4.30
2023-04-27T23:53:12.371Z,4.20
2023-04-27T23:55:39.076Z,4.90
2023-04-27T23:58:05.710Z,4.60
